KDUC/DUC METAR and TAF weather

Enter ICAO airport designator
Station Type Date Time Source
KDUC METAR 2019/10/19 07:35 UTC NOAA

KDUC 190735Z AUTO 14011KT 10SM CLR 16/07 A2968 RMK AO2 T01580073


Station Type Date Time Source
KDUC Decoded METAR 2019/10/19 07:35 UTC NOAA

Duncan, Halliburton Field Airport, OK, United States (KDUC) 34-28-15N 097-57-36W
Oct 19, 2019 - 03:35 AM EDT / 2019.10.19 0735 UTC
Wind: from the SE (140 degrees) at 13 MPH (11 KT):0
Visibility: 10 mile(s):0
Sky conditions: clear
Temperature: 60.4 F (15.8 C)
Dew Point: 45.1 F (7.3 C)
Relative Humidity: 56%
Pressure (altimeter): 29.68 in. Hg (1005 hPa)
ob: KDUC 190735Z AUTO 14011KT 10SM CLR 16/07 A2968 RMK AO2 T01580073
cycle: 7

Station Type Date Time Source
KDUC TAF UTC NOAA

Error!

Example: see airport list